Time;durP1;ratioP1;P1;durP2;ratioP2;P2;SDS_P1;SDS_P2;PMS_P1;PMS_P2;Temp;Humidity;BMP_temperature;BMP_pressure;BME280_temperature;BME280_humidity;BME280_pressure;Samples;Min_cycle;Max_cycle;Signal;HPM_P1;HPM_P2
2022/10/14 00:03:08;;;;;;;;;;;10.10;99.90;;;8.24;90.72;100525.59;10511479;28;19928;-84
2022/10/14 00:08:11;;;;;;;;;;;10.10;99.90;;;8.24;90.95;100528.25;10517260;28;20437;-84
2022/10/14 00:13:14;;;;;;;;;;;10.10;99.90;;;8.20;90.77;100522.38;10523609;28;20384;-83
2022/10/14 00:18:16;;;;;;;;;;;10.10;99.90;;;8.18;90.80;100529.66;10529229;28;19928;-83
2022/10/14 00:23:19;;;;;;;;;;;10.00;99.90;;;8.12;91.07;100517.00;10505254;28;19928;-84
2022/10/14 00:28:22;;;;;;;;;;;10.00;99.90;;;8.09;90.92;100519.91;10523464;28;19932;-84
2022/10/14 00:33:26;;;;;;;;;;;10.00;99.90;;;8.06;91.07;100512.28;10504311;28;20396;-84
2022/10/14 00:38:29;;;;;;;;;;;9.90;99.90;;;8.02;91.27;100509.06;10507806;28;19959;-83
2022/10/14 00:43:56;;;;;;;;;;;9.90;99.90;;;7.99;91.16;100517.31;10541883;28;20366;-83
2022/10/14 00:49:04;;;;;;;;;;;9.90;99.90;;;7.98;91.15;100506.88;10540292;28;19928;-84
2022/10/14 00:54:07;;;;;;;;;;;9.90;99.90;;;7.97;91.41;100510.47;10520842;28;19928;-84
2022/10/14 00:59:10;;;;;;;;;;;9.90;99.90;;;7.96;91.52;100501.72;10496884;28;19928;-83
2022/10/14 01:04:13;;;;;;;;;;;9.80;99.90;;;7.95;91.64;100507.16;10506094;28;19971;-83
2022/10/14 01:09:19;;;;;;;;;;;9.80;99.90;;;7.93;91.62;100499.38;10517167;28;19928;-83
2022/10/14 01:14:30;;;;;;;;;;;9.80;99.90;;;7.93;91.82;100495.88;10512348;28;19929;-83
2022/10/14 01:20:04;;;;;;;;;;;9.80;99.90;;;7.93;91.92;100491.44;10540085;28;20018;-84
2022/10/14 01:25:34;;;;;;;;;;;9.80;99.90;;;7.95;92.11;100499.22;10527076;28;19928;-83
2022/10/14 01:30:42;;;;;;;;;;;9.80;99.90;;;7.94;92.49;100492.25;10515476;28;19960;-83
2022/10/14 01:35:55;;;;;;;;;;;9.80;99.90;;;7.95;92.51;100489.47;10530231;28;19936;-84
2022/10/14 01:41:00;;;;;;;;;;;9.80;99.90;;;7.93;92.45;100485.31;10529264;28;19928;-83
2022/10/14 01:46:05;;;;;;;;;;;9.80;99.90;;;7.88;92.51;100500.78;10512882;28;20450;-83
2022/10/14 01:51:14;;;;;;;;;;;9.80;99.90;;;7.84;92.64;100494.09;10543485;28;19932;-83
2022/10/14 01:56:17;;;;;;;;;;;9.70;99.90;;;7.83;92.94;100487.13;10529911;28;20387;-84
2022/10/14 02:01:20;;;;;;;;;;;9.70;99.90;;;7.85;93.09;100486.00;10528297;28;19935;-83
2022/10/14 02:06:34;;;;;;;;;;;9.70;99.90;;;7.86;93.10;100487.69;10524295;28;20461;-83
2022/10/14 02:12:03;;;;;;;;;;;9.80;99.90;;;7.85;93.29;100482.53;10519577;28;20392;-83
2022/10/14 02:17:10;;;;;;;;;;;9.70;99.90;;;7.88;93.55;100487.53;10519625;28;19964;-83
2022/10/14 02:22:35;;;;;;;;;;;9.70;99.90;;;7.88;93.55;100479.59;10515955;28;19950;-83
2022/10/14 02:27:38;;;;;;;;;;;9.80;99.90;;;7.90;93.79;100472.34;10497329;28;19928;-83
2022/10/14 02:32:42;;;;;;;;;;;9.70;99.90;;;7.90;94.03;100473.19;10487887;28;20019;-83
2022/10/14 02:37:46;;;;;;;;;;;9.80;99.90;;;7.95;94.00;100473.59;10508591;28;19963;-83
2022/10/14 02:42:49;;;;;;;;;;;9.80;99.90;;;7.96;93.98;100469.13;10511513;28;19964;-83
2022/10/14 02:47:53;;;;;;;;;;;9.90;99.90;;;8.00;93.81;100473.16;10499624;28;20404;-83
2022/10/14 02:52:56;;;;;;;;;;;9.90;99.90;;;7.97;94.03;100463.69;10504744;28;20358;-84
2022/10/14 02:57:59;;;;;;;;;;;9.90;99.90;;;8.02;94.13;100476.47;10528300;28;19951;-84
2022/10/14 03:03:02;;;;;;;;;;;9.90;99.90;;;8.04;94.32;100477.19;10526325;28;20376;-84
2022/10/14 03:08:05;;;;;;;;;;;9.90;99.90;;;8.06;94.32;100477.88;10539231;28;19928;-84
2022/10/14 03:13:07;;;;;;;;;;;9.90;99.90;;;8.09;94.45;100474.91;10503280;28;19928;-84
2022/10/14 03:18:10;;;;;;;;;;;10.00;99.90;;;8.10;94.45;100481.06;10528112;28;20384;-84
2022/10/14 03:23:13;;;;;;;;;;;10.00;99.90;;;8.10;94.69;100470.50;10509018;28;19979;-84
2022/10/14 03:28:16;;;;;;;;;;;10.00;99.90;;;8.08;94.54;100469.78;10527039;28;20014;-84
2022/10/14 03:33:19;;;;;;;;;;;10.00;99.90;;;8.03;94.56;100471.03;10509016;28;19951;-84
2022/10/14 03:38:22;;;;;;;;;;;9.90;99.90;;;7.96;94.61;100471.75;10506139;28;19928;-84
2022/10/14 03:43:25;;;;;;;;;;;9.90;99.90;;;7.95;94.86;100470.94;10526661;28;20010;-84
2022/10/14 03:48:27;;;;;;;;;;;9.80;99.90;;;7.91;94.51;100468.72;10500376;28;20007;-84
2022/10/14 03:53:30;;;;;;;;;;;9.90;99.90;;;7.95;94.83;100475.41;10514324;28;20010;-84
2022/10/14 03:58:33;;;;;;;;;;;9.80;99.90;;;7.89;94.85;100468.88;10526372;28;20418;-84
2022/10/14 04:03:36;;;;;;;;;;;9.80;99.90;;;7.87;94.92;100460.25;10499664;28;19932;-84
2022/10/14 04:08:39;;;;;;;;;;;9.80;99.90;;;7.83;94.66;100461.50;10513329;28;19935;-84
2022/10/14 04:13:44;;;;;;;;;;;9.80;99.90;;;7.79;94.68;100452.19;10500023;28;19971;-84
2022/10/14 04:18:46;;;;;;;;;;;9.70;99.90;;;7.76;94.74;100455.13;10540377;28;19928;-84
2022/10/14 04:23:50;;;;;;;;;;;9.70;99.90;;;7.65;94.45;100452.63;10539594;28;19935;-85
2022/10/14 04:28:53;;;;;;;;;;;9.60;99.90;;;7.59;94.43;100464.63;10508024;28;20376;-84
2022/10/14 04:33:56;;;;;;;;;;;9.50;99.90;;;7.54;94.61;100456.28;10514810;28;19964;-84
2022/10/14 04:38:59;;;;;;;;;;;9.40;99.90;;;7.47;94.37;100450.72;10524545;28;19959;-83
2022/10/14 04:44:02;;;;;;;;;;;9.40;99.90;;;7.38;94.64;100442.81;10507728;28;20020;-84
2022/10/14 04:49:05;;;;;;;;;;;9.30;99.90;;;7.38;94.81;100446.31;10501908;28;20066;-84
2022/10/14 04:54:09;;;;;;;;;;;9.30;99.90;;;7.38;95.09;100450.75;10501967;28;20378;-84
2022/10/14 04:59:12;;;;;;;;;;;9.30;99.90;;;7.36;95.28;100442.94;10531815;28;19928;-82
2022/10/14 05:04:15;;;;;;;;;;;9.30;99.90;;;7.41;95.10;100450.47;10511654;28;19963;-83
2022/10/14 05:09:18;;;;;;;;;;;9.30;99.90;;;7.40;95.28;100451.44;10500802;28;19933;-82
2022/10/14 05:14:21;;;;;;;;;;;9.30;99.90;;;7.44;95.55;100448.38;10512448;28;19956;-82
2022/10/14 05:19:24;;;;;;;;;;;9.40;99.90;;;7.49;95.82;100455.88;10513147;28;20001;-83
2022/10/14 05:24:27;;;;;;;;;;;9.40;99.90;;;7.51;95.72;100457.41;10526100;28;19936;-83
2022/10/14 05:29:30;;;;;;;;;;;9.40;99.90;;;7.52;95.60;100468.81;10527529;28;20015;-82
2022/10/14 05:34:33;;;;;;;;;;;9.50;99.90;;;7.48;95.82;100457.69;10532414;28;19928;-84
2022/10/14 05:39:36;;;;;;;;;;;9.40;99.90;;;7.53;96.21;100465.19;10518260;28;19928;-83
2022/10/14 05:44:39;;;;;;;;;;;9.50;99.90;;;7.62;96.24;100471.47;10527632;28;19979;-83
2022/10/14 05:49:42;;;;;;;;;;;9.60;99.90;;;7.71;96.30;100473.22;10503642;28;19929;-83
2022/10/14 05:54:45;;;;;;;;;;;9.60;99.90;;;7.85;96.56;100467.47;10526871;28;19928;-83
2022/10/14 05:59:47;;;;;;;;;;;9.80;99.90;;;8.04;96.86;100477.19;10529374;28;19936;-83
2022/10/14 06:04:51;;;;;;;;;;;10.00;99.90;;;8.23;96.96;100478.94;10547209;28;19963;-83
2022/10/14 06:09:54;;;;;;;;;;;10.10;99.90;;;8.42;97.27;100485.97;10531981;28;19928;-82
2022/10/14 06:14:57;;;;;;;;;;;10.30;99.90;;;8.59;97.53;100485.19;10549919;28;19928;-83
2022/10/14 06:20:00;;;;;;;;;;;10.50;99.90;;;8.78;97.63;100490.38;10544383;28;19928;-83
2022/10/14 06:25:03;;;;;;;;;;;10.70;99.90;;;9.01;97.69;100493.44;10471744;28;19991;-83
2022/10/14 06:30:07;;;;;;;;;;;10.90;99.90;;;9.19;98.00;100482.84;10503446;28;19928;-83
2022/10/14 06:35:10;;;;;;;;;;;11.10;99.90;;;9.47;98.06;100490.69;10538939;28;19928;-83
2022/10/14 06:40:13;;;;;;;;;;;11.40;99.90;;;9.73;97.96;100501.34;10544582;28;19936;-83
2022/10/14 06:45:16;;;;;;;;;;;11.50;99.90;;;9.93;98.11;100487.69;10531055;28;20014;-83
2022/10/14 06:50:19;;;;;;;;;;;11.80;99.90;;;10.19;98.23;100500.97;10542950;28;20391;-83
2022/10/14 06:55:22;;;;;;;;;;;12.10;99.90;;;10.47;98.18;100492.00;10515024;28;20426;-83
2022/10/14 07:00:25;;;;;;;;;;;12.30;99.90;;;10.78;98.26;100498.41;10539966;28;19978;-83
2022/10/14 07:05:28;;;;;;;;;;;12.60;99.90;;;11.13;98.27;100485.84;10499117;28;20384;-84
2022/10/14 07:10:31;;;;;;;;;;;13.00;99.90;;;11.47;98.00;100486.53;10486367;28;20363;-84
2022/10/14 07:15:36;;;;;;;;;;;13.40;99.90;;;11.88;98.17;100486.53;10506612;28;20314;-84
2022/10/14 07:20:39;;;;;;;;;;;13.70;99.90;;;12.25;97.56;100496.59;10520263;28;19936;-83
2022/10/14 07:25:42;;;;;;;;;;;14.00;99.90;;;12.72;96.79;100490.41;10503966;28;19928;-84
2022/10/14 07:30:45;;;;;;;;;;;14.40;99.90;;;13.04;94.23;100488.56;10483051;28;19929;-83
2022/10/14 07:35:47;;;;;;;;;;;14.70;99.90;;;13.31;91.68;100480.06;10514891;28;19928;-84
2022/10/14 07:41:05;;;;;;;;;;;15.00;99.90;;;13.51;88.66;100471.56;10523023;28;19936;-83
2022/10/14 07:46:08;;;;;;;;;;;15.30;99.90;;;13.49;85.32;100473.56;10526623;28;19935;-84
2022/10/14 07:51:11;;;;;;;;;;;15.50;99.90;;;13.46;83.64;100464.09;10508979;28;19967;-84
2022/10/14 07:56:14;;;;;;;;;;;15.50;99.90;;;13.41;83.21;100463.78;10541096;28;19928;-84
2022/10/14 08:01:17;;;;;;;;;;;15.40;99.90;;;13.44;82.74;100457.28;10525463;28;20014;-83
2022/10/14 08:06:20;;;;;;;;;;;15.50;99.90;;;13.50;82.23;100457.38;10502103;28;19936;-84
2022/10/14 08:11:27;;;;;;;;;;;15.50;99.90;;;13.69;81.76;100457.88;10500881;28;19932;-84
2022/10/14 08:16:32;;;;;;;;;;;15.70;99.90;;;13.78;80.56;100446.91;10542100;28;19928;-84
2022/10/14 08:21:35;;;;;;;;;;;15.80;99.90;;;13.88;80.38;100444.00;10506292;28;19928;-84
2022/10/14 08:26:47;;;;;;;;;;;15.90;99.90;;;13.96;79.93;100446.56;10509080;28;19982;-84
2022/10/14 08:31:51;;;;;;;;;;;15.90;99.90;;;14.00;79.77;100450.53;10524455;28;19976;-84
2022/10/14 08:36:54;;;;;;;;;;;15.90;99.90;;;13.92;79.29;100445.28;10498963;28;19928;-84
2022/10/14 08:42:19;;;;;;;;;;;15.70;99.90;;;14.11;79.93;100443.91;10526937;28;19935;-84
2022/10/14 08:47:29;;;;;;;;;;;15.80;99.90;;;14.34;79.54;100443.81;10541527;28;19956;-84
2022/10/14 08:52:42;;;;;;;;;;;16.10;99.90;;;14.62;78.66;100434.06;10541055;28;19928;-84
2022/10/14 08:57:56;;;;;;;;;;;16.40;99.90;;;14.87;76.74;100445.28;10512565;28;19936;-84
2022/10/14 09:03:01;;;;;;;;;;;16.70;99.90;;;15.11;74.75;100433.34;10509417;28;19929;-84
2022/10/14 09:08:07;;;;;;;;;;;17.00;99.90;;;15.32;73.41;100434.38;10487193;28;19975;-84
2022/10/14 09:13:21;;;;;;;;;;;17.30;99.90;;;15.58;72.72;100439.09;10483101;28;20363;-84
2022/10/14 09:18:59;;;;;;;;;;;17.50;99.90;;;15.85;71.26;100418.72;10503575;28;19958;-84
2022/10/14 09:24:08;;;;;;;;;;;17.70;99.90;;;16.10;70.02;100430.63;10516046;28;19932;-84
2022/10/14 09:29:56;;;;;;;;;;;18.00;99.70;;;16.26;68.31;100424.09;10518736;28;19974;-84
2022/10/14 09:34:59;;;;;;;;;;;18.20;98.80;;;16.38;68.06;100416.31;10501606;28;19959;-84
2022/10/14 09:40:22;;;;;;;;;;;18.40;98.10;;;16.66;68.43;100422.38;10488522;28;20011;-84
2022/10/14 09:45:26;;;;;;;;;;;18.60;98.10;;;17.03;67.73;100425.59;10528313;28;20049;-84
2022/10/14 09:50:47;;;;;;;;;;;18.80;98.00;;;17.16;67.52;100419.44;10496177;28;19967;-84
2022/10/14 09:55:56;;;;;;;;;;;19.00;97.50;;;17.34;67.35;100415.09;10524893;28;19978;-84
2022/10/14 10:01:00;;;;;;;;;;;19.20;97.60;;;17.52;65.97;100414.47;10523704;28;20023;-84
2022/10/14 10:06:05;;;;;;;;;;;19.40;97.00;;;17.61;65.39;100415.06;10502816;28;20380;-85
2022/10/14 10:11:12;;;;;;;;;;;19.50;96.50;;;17.79;65.30;100409.91;10547436;28;20311;-84
2022/10/14 10:16:30;;;;;;;;;;;19.70;96.30;;;18.07;65.09;100400.75;10507266;28;19928;-85
2022/10/14 10:21:33;;;;;;;;;;;19.90;96.10;;;18.45;64.88;100392.72;10550414;28;20059;-84
2022/10/14 10:26:35;;;;;;;;;;;20.30;95.60;;;18.72;63.34;100393.44;10530166;28;19928;-85
2022/10/14 10:31:41;;;;;;;;;;;20.60;95.30;;;18.89;61.73;100393.72;10511776;28;19928;-85
2022/10/14 10:36:56;;;;;;;;;;;20.80;94.70;;;19.11;60.54;100383.41;10520794;28;20371;-85
2022/10/14 10:42:08;;;;;;;;;;;21.30;94.00;;;19.41;60.18;100373.63;10513144;28;20392;-85
2022/10/14 10:47:30;;;;;;;;;;;21.90;93.00;;;20.00;58.90;100361.44;10511180;28;19967;-86
2022/10/14 10:53:00;;;;;;;;;;;22.40;89.30;;;20.44;55.04;100350.47;10543941;28;19934;-85
2022/10/14 10:58:36;;;;;;;;;;;23.00;90.40;;;20.86;54.22;100343.25;10535490;28;20476;-85
2022/10/14 11:04:20;;;;;;;;;;;23.60;89.20;;;21.74;53.96;100338.84;10528209;28;19929;-85
2022/10/14 11:15:29;;;;;;;;;;;25.20;83.70;;;23.21;49.06;100329.94;10490333;28;19936;-85
2022/10/14 11:20:38;;;;;;;;;;;25.90;80.00;;;23.88;46.52;100319.00;10521491;28;19935;-86
2022/10/14 11:25:48;;;;;;;;;;;26.40;71.40;;;24.25;45.38;100313.72;10544140;28;19928;-85
2022/10/14 11:31:13;;;;;;;;;;;26.90;76.20;;;24.38;43.82;100314.41;10523720;28;20319;-85
2022/10/14 11:36:30;;;;;;;;;;;27.10;69.90;;;24.29;41.89;100298.56;10502247;28;19928;-86
2022/10/14 11:41:57;;;;;;;;;;;27.20;69.60;;;24.22;42.65;100300.63;10530321;28;19928;-86
2022/10/14 11:47:04;;;;;;;;;;;27.10;65.80;;;24.16;42.01;100296.22;10528137;28;19976;-86
2022/10/14 11:52:15;;;;;;;;;;;27.00;63.20;;;24.12;41.46;100291.59;10515936;28;19928;-86
2022/10/14 11:57:28;;;;;;;;;;;26.80;59.90;;;23.73;40.74;100284.34;10526388;28;19928;-86
2022/10/14 12:02:43;;;;;;;;;;;26.20;61.40;;;22.85;42.32;100287.88;10502145;28;20396;-85
2022/10/14 12:08:05;;;;;;;;;;;25.20;62.80;;;22.03;44.56;100281.00;10500757;28;19937;-86
2022/10/14 12:13:13;;;;;;;;;;;24.30;63.40;;;21.40;44.75;100281.84;10522641;28;19929;-85
2022/10/14 12:18:18;;;;;;;;;;;23.50;64.80;;;20.92;46.10;100279.38;10500448;28;20366;-85
2022/10/14 12:23:31;;;;;;;;;;;22.90;65.40;;;20.58;46.93;100281.81;10518320;28;19974;-85
2022/10/14 12:28:36;;;;;;;;;;;22.50;66.50;;;20.29;48.01;100276.16;10512684;28;19976;-85
2022/10/14 12:34:10;;;;;;;;;;;22.20;67.50;;;20.11;49.20;100272.69;10498410;28;19951;-85
2022/10/14 12:39:15;;;;;;;;;;;22.00;68.50;;;19.94;49.91;100265.22;10488339;28;19932;-85
2022/10/14 12:44:26;;;;;;;;;;;21.80;69.80;;;19.77;50.84;100254.25;10523364;28;19964;-85
2022/10/14 12:49:32;;;;;;;;;;;21.60;70.70;;;19.61;51.46;100252.19;10494727;28;19951;-85
2022/10/14 12:54:36;;;;;;;;;;;21.40;70.70;;;19.49;51.63;100248.53;10528257;28;19929;-85
2022/10/14 12:59:40;;;;;;;;;;;21.30;71.20;;;19.40;52.07;100250.72;10538826;28;19928;-85
2022/10/14 13:04:52;;;;;;;;;;;21.20;71.40;;;19.33;51.89;100249.97;10490259;28;19928;-85
2022/10/14 13:09:59;;;;;;;;;;;21.10;71.90;;;19.22;52.29;100251.53;10507132;28;19974;-85
2022/10/14 13:15:30;;;;;;;;;;;21.10;71.80;;;19.13;53.12;100255.56;10504299;28;19928;-85
2022/10/14 13:20:33;;;;;;;;;;;21.00;72.30;;;19.07;53.08;100252.91;10547100;28;19929;-85
2022/10/14 13:25:36;;;;;;;;;;;20.90;72.80;;;18.98;53.66;100261.28;10506542;28;19929;-85
2022/10/14 13:30:52;;;;;;;;;;;20.80;73.20;;;18.95;53.35;100248.28;10503416;28;20323;-85
2022/10/14 13:36:11;;;;;;;;;;;20.80;73.30;;;18.94;53.63;100240.41;10512645;28;19928;-85
2022/10/14 13:41:17;;;;;;;;;;;20.70;73.40;;;18.98;53.72;100247.00;10513001;28;20266;-85
2022/10/14 13:46:23;;;;;;;;;;;20.70;73.70;;;19.02;54.27;100239.31;10518252;28;19928;-85
2022/10/14 13:51:39;;;;;;;;;;;20.80;74.20;;;18.94;54.38;100237.72;10522138;28;19936;-85
2022/10/14 13:56:43;;;;;;;;;;;20.70;74.10;;;18.87;54.71;100240.47;10489511;28;20384;-85
2022/10/14 14:01:46;;;;;;;;;;;20.70;74.70;;;18.77;55.26;100237.44;10504154;28;20400;-85
2022/10/14 14:06:50;;;;;;;;;;;20.60;75.10;;;18.68;56.08;100238.78;10503874;28;20462;-85
2022/10/14 14:12:14;;;;;;;;;;;20.50;75.80;;;18.59;56.85;100237.38;10498121;28;19928;-85
2022/10/14 14:17:22;;;;;;;;;;;20.40;76.60;;;18.46;57.69;100233.75;10529866;28;19935;-85
2022/10/14 14:22:27;;;;;;;;;;;20.30;77.70;;;18.40;58.01;100223.84;10527406;28;19935;-85
2022/10/14 14:27:32;;;;;;;;;;;20.20;77.80;;;18.40;59.03;100231.91;10504763;28;19928;-84
2022/10/14 14:32:35;;;;;;;;;;;20.20;78.50;;;18.39;59.72;100222.19;10513595;28;19928;-85
2022/10/14 14:37:43;;;;;;;;;;;20.20;79.00;;;18.40;59.91;100221.16;10510935;28;19995;-85
2022/10/14 14:43:00;;;;;;;;;;;20.20;79.40;;;18.37;59.96;100221.59;10474544;28;19936;-85
2022/10/14 14:48:05;;;;;;;;;;;20.20;79.60;;;18.33;59.90;100222.25;10527001;28;19928;-85
2022/10/14 14:53:19;;;;;;;;;;;20.20;79.80;;;18.25;59.74;100225.22;10525642;28;19928;-84
2022/10/14 14:58:28;;;;;;;;;;;20.10;79.90;;;18.14;60.87;100224.03;10527464;28;19978;-85
2022/10/14 15:03:56;;;;;;;;;;;20.00;80.90;;;18.02;61.30;100226.59;10545056;28;20481;-85
2022/10/14 15:09:30;;;;;;;;;;;19.80;81.30;;;17.90;62.45;100226.44;10530138;28;19935;-85
2022/10/14 15:14:49;;;;;;;;;;;19.70;83.60;;;17.73;63.21;100219.91;10503438;28;19928;-85
2022/10/14 15:19:53;;;;;;;;;;;19.50;84.20;;;17.55;64.26;100220.59;10539554;28;19928;-86
2022/10/14 15:24:57;;;;;;;;;;;19.30;85.50;;;17.35;64.76;100209.91;10528113;28;19928;-85
2022/10/14 15:30:16;;;;;;;;;;;19.10;85.40;;;17.15;65.34;100219.06;10523912;28;19958;-85
2022/10/14 15:35:21;;;;;;;;;;;18.90;86.60;;;16.92;65.75;100222.22;10500140;28;19929;-85
2022/10/14 15:40:29;;;;;;;;;;;18.60;87.20;;;16.66;66.27;100229.19;10523562;28;19994;-85
2022/10/14 15:45:32;;;;;;;;;;;18.40;86.70;;;16.40;67.32;100226.53;10498314;28;19928;-85
2022/10/14 15:50:36;;;;;;;;;;;18.20;86.50;;;16.21;68.44;100234.34;10484924;28;19967;-85
2022/10/14 15:55:38;;;;;;;;;;;18.00;87.00;;;16.00;68.48;100237.97;10512648;28;20385;-84
2022/10/14 16:00:42;;;;;;;;;;;17.80;88.50;;;15.77;69.18;100249.06;10523163;28;19928;-84
2022/10/14 16:05:45;;;;;;;;;;;17.60;90.40;;;15.48;69.91;100243.97;10511469;28;19935;-85
2022/10/14 16:10:48;;;;;;;;;;;17.30;91.20;;;15.31;70.52;100256.00;10485886;28;20446;-85
2022/10/14 16:15:58;;;;;;;;;;;17.10;90.70;;;15.12;70.63;100261.06;10508578;28;19979;-85
2022/10/14 16:21:01;;;;;;;;;;;16.80;91.40;;;14.90;71.75;100265.63;10525195;28;19934;-85
2022/10/14 16:26:04;;;;;;;;;;;16.60;91.80;;;14.73;72.49;100272.28;10540828;28;19936;-85
2022/10/14 16:31:11;;;;;;;;;;;16.50;92.70;;;14.50;73.00;100269.78;10524145;28;19928;-85
2022/10/14 16:36:14;;;;;;;;;;;16.20;93.20;;;14.28;73.43;100270.81;10521145;28;19928;-85
2022/10/14 16:41:17;;;;;;;;;;;16.00;93.10;;;14.10;74.18;100276.56;10515322;28;19952;-86
2022/10/14 16:47:14;;;;;;;;;;;15.80;93.40;;;13.94;74.63;100277.63;10516827;28;19978;-85
2022/10/14 16:51:43;;;;;;;;;;;15.70;93.50;;;13.80;75.10;100278.50;10528971;28;19971;-85
2022/10/14 16:56:52;;;;;;;;;;;15.50;94.50;;;13.60;75.51;100279.03;10532595;28;19928;-85
2022/10/14 17:01:55;;;;;;;;;;;15.30;94.60;;;13.46;76.53;100284.41;10532648;28;19928;-85
2022/10/14 17:07:05;;;;;;;;;;;15.20;94.40;;;13.35;76.88;100288.34;10544617;28;19936;-85
2022/10/14 17:12:09;;;;;;;;;;;15.10;95.00;;;13.21;77.20;100292.66;10539276;28;20027;-85
2022/10/14 17:17:16;;;;;;;;;;;15.00;95.90;;;13.04;77.82;100281.28;10528982;28;19974;-85
2022/10/14 17:22:19;;;;;;;;;;;14.80;96.60;;;12.93;78.25;100287.06;10526825;28;19935;-85
2022/10/14 17:27:23;;;;;;;;;;;14.70;96.60;;;12.82;79.40;100292.84;10531257;28;19928;-85
2022/10/14 17:32:29;;;;;;;;;;;14.60;96.40;;;12.74;79.82;100296.41;10547658;28;20380;-85
2022/10/14 17:37:31;;;;;;;;;;;14.50;97.10;;;12.64;80.12;100289.66;10531134;28;19928;-85
2022/10/14 17:42:34;;;;;;;;;;;14.40;98.40;;;12.52;80.56;100294.56;10510576;28;20392;-85
2022/10/14 17:47:37;;;;;;;;;;;14.30;98.40;;;12.42;80.98;100300.16;10522257;28;19932;-85
2022/10/14 17:52:40;;;;;;;;;;;14.20;98.70;;;12.30;81.40;100296.25;10511732;28;19928;-85
2022/10/14 17:57:43;;;;;;;;;;;14.10;99.20;;;12.28;81.55;100301.72;10507578;28;20453;-85
2022/10/14 18:02:46;;;;;;;;;;;14.00;99.90;;;12.22;82.19;100307.75;10516864;28;19929;-85
2022/10/14 18:07:49;;;;;;;;;;;14.00;99.90;;;12.19;82.93;100304.63;10519109;28;19994;-85
2022/10/14 18:12:53;;;;;;;;;;;13.90;99.90;;;12.16;83.14;100313.78;10544534;28;19935;-85
2022/10/14 18:17:56;;;;;;;;;;;13.90;99.90;;;12.09;83.11;100312.00;10505668;28;19928;-85
2022/10/14 18:23:01;;;;;;;;;;;13.90;99.90;;;12.04;83.40;100307.19;10539339;28;19928;-85
2022/10/14 18:28:04;;;;;;;;;;;13.80;99.90;;;11.99;83.97;100304.22;10514875;28;19929;-85
2022/10/14 18:33:07;;;;;;;;;;;13.70;99.90;;;11.96;84.39;100299.25;10542732;28;20471;-85
2022/10/14 18:38:10;;;;;;;;;;;13.70;99.90;;;11.94;84.29;100302.13;10515411;28;19928;-85
2022/10/14 18:43:13;;;;;;;;;;;13.70;99.90;;;11.85;84.24;100311.13;10514704;28;19929;-85
2022/10/14 18:48:19;;;;;;;;;;;13.60;99.90;;;11.78;84.58;100307.47;10528096;28;19935;-85
2022/10/14 18:53:23;;;;;;;;;;;13.50;99.90;;;11.74;84.99;100306.16;10485652;28;20316;-85
2022/10/14 18:58:25;;;;;;;;;;;13.50;99.90;;;11.69;85.06;100308.50;10545288;28;20030;-86
2022/10/14 19:03:29;;;;;;;;;;;13.40;99.90;;;11.63;85.00;100317.16;10530441;28;19932;-86
2022/10/14 19:08:34;;;;;;;;;;;13.40;99.90;;;11.60;85.15;100320.19;10526116;28;19978;-86
2022/10/14 19:13:44;;;;;;;;;;;13.30;99.90;;;11.49;85.14;100322.19;10525565;28;19928;-86
2022/10/14 19:18:51;;;;;;;;;;;13.30;99.90;;;11.46;85.45;100325.22;10515553;28;19928;-86
2022/10/14 19:23:54;;;;;;;;;;;13.20;99.90;;;11.35;85.30;100322.09;10511137;28;19928;-86
2022/10/14 19:29:00;;;;;;;;;;;13.10;99.90;;;11.28;85.89;100327.25;10517580;28;20354;-86
2022/10/14 19:34:06;;;;;;;;;;;13.00;99.90;;;11.20;86.12;100336.06;10513554;28;19928;-86
2022/10/14 19:39:12;;;;;;;;;;;12.90;99.90;;;11.15;86.07;100335.72;10524828;28;19929;-86
2022/10/14 19:44:15;;;;;;;;;;;12.90;99.90;;;11.11;86.28;100345.06;10499761;28;19928;-86
2022/10/14 19:49:18;;;;;;;;;;;12.80;99.90;;;11.04;86.48;100321.97;10522639;28;20021;-86
2022/10/14 19:54:21;;;;;;;;;;;12.80;99.90;;;10.99;86.79;100335.75;10510091;28;20384;-86
2022/10/14 19:59:23;;;;;;;;;;;12.70;99.90;;;10.95;86.95;100331.78;10495751;28;19929;-86
2022/10/14 20:04:26;;;;;;;;;;;12.70;99.90;;;10.89;87.04;100341.25;10518074;28;19928;-86
2022/10/14 20:09:29;;;;;;;;;;;12.60;99.90;;;10.81;87.10;100343.91;10507939;28;19928;-86
2022/10/14 20:14:32;;;;;;;;;;;12.50;99.90;;;10.77;87.42;100347.88;10526124;28;19936;-86
2022/10/14 20:19:36;;;;;;;;;;;12.50;99.90;;;10.70;87.61;100331.78;10519323;28;19928;-86
2022/10/14 20:24:39;;;;;;;;;;;12.50;99.90;;;10.64;87.66;100342.22;10507238;28;19929;-86
2022/10/14 20:29:42;;;;;;;;;;;12.50;99.90;;;10.59;87.98;100332.09;10507761;28;19928;-86
2022/10/14 20:34:45;;;;;;;;;;;12.40;99.90;;;10.57;88.20;100335.91;10491281;28;19928;-86
2022/10/14 20:39:48;;;;;;;;;;;12.30;99.90;;;10.49;88.27;100331.41;10504135;28;19958;-86
2022/10/14 20:44:51;;;;;;;;;;;12.30;99.90;;;10.45;88.38;100336.22;10510433;28;20304;-86
2022/10/14 20:49:54;;;;;;;;;;;12.20;99.90;;;10.39;88.56;100333.41;10534331;28;19928;-86
2022/10/14 20:54:57;;;;;;;;;;;12.20;99.90;;;10.33;88.89;100329.56;10519602;28;19928;-85
2022/10/14 21:00:00;;;;;;;;;;;12.10;99.90;;;10.29;88.78;100327.41;10508629;28;19928;-85
2022/10/14 21:05:04;;;;;;;;;;;12.10;99.90;;;10.22;89.24;100324.53;10505324;28;19928;-85
2022/10/14 21:10:08;;;;;;;;;;;12.00;99.90;;;10.22;89.30;100331.66;10517424;28;19928;-86
2022/10/14 21:15:10;;;;;;;;;;;12.00;99.90;;;10.19;89.48;100324.84;10538725;28;20288;-85
2022/10/14 21:20:14;;;;;;;;;;;12.00;99.90;;;10.18;89.37;100331.16;10528698;28;20280;-85
2022/10/14 21:25:17;;;;;;;;;;;12.00;99.90;;;10.14;89.47;100321.88;10518390;28;19936;-85
2022/10/14 21:30:20;;;;;;;;;;;12.00;99.90;;;10.13;89.79;100330.81;10530984;28;19928;-85
2022/10/14 21:35:22;;;;;;;;;;;11.90;99.90;;;10.16;89.96;100333.97;10530634;28;20292;-85
2022/10/14 21:40:26;;;;;;;;;;;11.90;99.90;;;10.19;90.21;100328.34;10500425;28;19975;-85
2022/10/14 21:45:29;;;;;;;;;;;12.00;99.90;;;10.22;90.27;100321.03;10517903;28;19929;-85
2022/10/14 21:50:31;;;;;;;;;;;12.00;99.90;;;10.21;90.37;100322.88;10509057;28;19971;-86
2022/10/14 21:55:34;;;;;;;;;;;12.00;99.90;;;10.23;90.43;100317.38;10530154;28;20051;-85
2022/10/14 22:00:37;;;;;;;;;;;12.00;99.90;;;10.21;90.48;100309.59;10504563;28;20010;-85
2022/10/14 22:05:40;;;;;;;;;;;12.00;99.90;;;10.24;90.72;100309.28;10512651;28;20387;-85
2022/10/14 22:10:44;;;;;;;;;;;12.10;99.90;;;10.25;90.75;100300.31;10512170;28;20083;-85
2022/10/14 22:15:47;;;;;;;;;;;12.10;99.90;;;10.22;90.89;100310.44;10526496;28;19935;-85
2022/10/14 22:20:58;;;;;;;;;;;12.10;99.90;;;10.19;90.95;100306.25;10523458;28;19928;-85
2022/10/14 22:26:03;;;;;;;;;;;12.00;99.90;;;10.14;90.69;100297.97;10508189;28;20002;-85
2022/10/14 22:31:11;;;;;;;;;;;11.90;99.90;;;10.04;90.71;100306.06;10542490;28;19978;-85
2022/10/14 22:36:16;;;;;;;;;;;11.90;99.90;;;9.96;91.20;100311.34;10527732;28;20410;-85
2022/10/14 22:41:25;;;;;;;;;;;11.70;99.90;;;9.90;91.25;100307.53;10528231;28;19928;-85
2022/10/14 22:46:35;;;;;;;;;;;11.70;99.90;;;9.86;91.70;100311.47;10538334;28;20294;-85
2022/10/14 22:51:39;;;;;;;;;;;11.70;99.90;;;9.78;91.69;100305.31;10495035;28;20019;-85
2022/10/14 22:56:42;;;;;;;;;;;11.60;99.90;;;9.73;91.79;100305.78;10512404;28;19935;-85
2022/10/14 23:01:45;;;;;;;;;;;11.50;99.90;;;9.70;92.12;100308.75;10518144;28;19964;-85
2022/10/14 23:06:48;;;;;;;;;;;11.50;99.90;;;9.67;92.19;100310.91;10511953;28;19928;-85
2022/10/14 23:11:52;;;;;;;;;;;11.50;99.90;;;9.60;92.22;100308.06;10533722;28;20455;-85
2022/10/14 23:16:55;;;;;;;;;;;11.40;99.90;;;9.52;92.14;100314.13;10501631;28;20019;-85